createdAt,value
2022-09-23T00:04:00.883Z,7.00
2022-09-23T00:34:04.895Z,7.38
2022-09-23T01:04:08.034Z,6.83
2022-09-23T01:34:11.593Z,5.60
2022-09-23T02:04:15.415Z,8.93
2022-09-23T02:34:19.116Z,8.85
2022-09-23T03:04:22.449Z,9.27
2022-09-23T03:34:26.391Z,9.88
2022-09-23T04:04:29.364Z,11.18
2022-09-23T04:34:33.124Z,10.80
2022-09-23T05:04:36.072Z,10.67
2022-09-23T05:34:38.960Z,11.63
2022-09-23T06:04:42.200Z,14.77
2022-09-23T06:34:51.523Z,21.93
2022-09-23T07:04:55.336Z,21.70
2022-09-23T07:34:58.933Z,10.40
2022-09-23T08:05:02.119Z,5.00
2022-09-23T08:35:05.266Z,2.80
2022-09-23T09:05:08.578Z,2.65
2022-09-23T09:35:12.224Z,1.00
2022-09-23T10:05:23.838Z,2.15
2022-09-23T10:35:28.621Z,1.50
2022-09-23T11:05:31.370Z,1.20
2022-09-23T11:35:35.925Z,1.10
2022-09-23T12:05:38.997Z,1.25
2022-09-23T12:35:42.578Z,2.13
2022-09-23T13:05:46.046Z,1.83
2022-09-23T13:35:49.517Z,1.30
2022-09-23T14:05:53.131Z,1.43
2022-09-23T14:35:56.391Z,1.27
2022-09-23T15:05:59.163Z,1.50
2022-09-23T15:36:03.663Z,1.33
2022-09-23T16:06:06.624Z,2.27
2022-09-23T16:36:10.701Z,4.27
2022-09-23T17:06:14.202Z,5.23
2022-09-23T17:36:17.962Z,4.83
2022-09-23T18:06:21.363Z,8.30
2022-09-23T18:36:24.589Z,7.93
2022-09-23T19:06:27.954Z,8.07
2022-09-23T19:36:31.568Z,10.20
2022-09-23T20:06:34.503Z,10.75
2022-09-23T20:36:38.201Z,17.20
2022-09-23T21:06:40.942Z,18.57
2022-09-23T21:36:44.839Z,18.50
2022-09-23T22:06:48.812Z,17.10
2022-09-23T22:36:52.425Z,15.50
2022-09-23T23:06:56.891Z,18.27
2022-09-23T23:37:00.176Z,15.30
